createdAt,value
2023-05-13T00:00:37.639Z,100.00
2023-05-13T00:03:39.791Z,100.00
2023-05-13T00:06:54.557Z,100.00
2023-05-13T00:10:09.597Z,100.00
2023-05-13T00:13:24.840Z,100.00
2023-05-13T00:16:33.574Z,100.00
2023-05-13T00:19:48.557Z,100.00
2023-05-13T00:22:50.311Z,100.00
2023-05-13T00:26:06.569Z,100.00
2023-05-13T00:29:08.449Z,100.00
2023-05-13T00:32:23.596Z,100.00
2023-05-13T00:35:38.558Z,100.00
2023-05-13T00:38:46.589Z,100.00
2023-05-13T00:42:01.584Z,100.00
2023-05-13T00:45:10.343Z,100.00
2023-05-13T00:48:18.564Z,100.00
2023-05-13T00:51:33.576Z,100.00
2023-05-13T00:54:35.606Z,100.00
2023-05-13T00:57:50.590Z,100.00
2023-05-13T01:01:34.615Z,100.00
2023-05-13T01:05:01.619Z,100.00
2023-05-13T01:08:18.650Z,100.00
2023-05-13T01:11:43.598Z,100.00
2023-05-13T01:14:59.555Z,100.00
2023-05-13T01:18:21.653Z,100.00
2023-05-13T01:21:32.570Z,100.00
2023-05-13T01:24:41.203Z,100.00
2023-05-13T01:27:57.562Z,100.00
2023-05-13T01:31:12.584Z,100.00
2023-05-13T01:34:29.583Z,100.00
2023-05-13T01:37:31.466Z,100.00
2023-05-13T01:40:47.554Z,100.00
2023-05-13T01:44:02.566Z,100.00
2023-05-13T01:47:04.609Z,100.00
2023-05-13T01:50:19.765Z,100.00
2023-05-13T01:53:34.548Z,100.00
2023-05-13T01:56:36.506Z,100.00
2023-05-13T01:59:51.570Z,100.00
2023-05-13T02:03:06.608Z,100.00
2023-05-13T02:06:15.080Z,100.00
2023-05-13T02:09:23.558Z,100.00
2023-05-13T02:12:45.532Z,100.00
2023-05-13T02:16:01.596Z,100.00
2023-05-13T02:19:09.594Z,100.00
2023-05-13T02:22:24.564Z,100.00
2023-05-13T02:25:32.591Z,100.00
2023-05-13T02:28:41.102Z,100.00
2023-05-13T02:31:49.621Z,100.00
2023-05-13T02:35:04.582Z,100.00
2023-05-13T02:38:19.588Z,100.00
2023-05-13T02:41:21.483Z,100.00
2023-05-13T02:44:36.576Z,100.00
2023-05-13T02:47:45.211Z,100.00
2023-05-13T02:50:53.570Z,100.00
2023-05-13T02:54:08.589Z,100.00
2023-05-13T02:57:23.590Z,100.00
2023-05-13T03:00:32.210Z,100.00
2023-05-13T03:03:46.598Z,100.00
2023-05-13T03:06:55.133Z,100.00
2023-05-13T03:10:09.558Z,100.00
2023-05-13T03:13:24.930Z,100.00
2023-05-13T03:16:39.687Z,100.00
2023-05-13T03:19:41.516Z,100.00
2023-05-13T03:22:56.564Z,100.00
2023-05-13T03:25:58.404Z,100.00
2023-05-13T03:29:13.589Z,100.00
2023-05-13T03:32:15.463Z,100.00
2023-05-13T03:35:30.593Z,100.00
2023-05-13T03:38:32.485Z,100.00
2023-05-13T03:41:47.573Z,100.00
2023-05-13T03:44:49.933Z,100.00
2023-05-13T03:48:04.614Z,100.00
2023-05-13T03:51:06.537Z,100.00
2023-05-13T03:54:21.586Z,100.00
2023-05-13T03:57:36.562Z,100.00
2023-05-13T04:00:45.314Z,100.00
2023-05-13T04:03:53.556Z,100.00
2023-05-13T04:07:08.578Z,100.00
2023-05-13T04:10:17.573Z,100.00
2023-05-13T04:13:32.684Z,100.00
2023-05-13T04:16:54.625Z,100.00
2023-05-13T04:19:56.526Z,100.00
2023-05-13T04:23:13.562Z,100.00
2023-05-13T04:26:28.598Z,100.00
2023-05-13T04:29:30.427Z,100.00
2023-05-13T04:32:45.655Z,100.00
2023-05-13T04:35:47.474Z,100.00
2023-05-13T04:39:02.592Z,100.00
2023-05-13T04:42:11.181Z,100.00
2023-05-13T04:45:19.575Z,100.00
2023-05-13T04:48:28.083Z,100.00
2023-05-13T04:51:36.577Z,100.00
2023-05-13T04:54:51.564Z,100.00
2023-05-13T04:58:06.561Z,100.00
2023-05-13T05:01:21.635Z,100.00
2023-05-13T05:04:36.571Z,100.00
2023-05-13T05:07:45.188Z,100.00
2023-05-13T05:10:53.630Z,100.00
2023-05-13T05:14:08.567Z,100.00
2023-05-13T05:17:17.132Z,100.00
2023-05-13T05:20:25.552Z,100.00
2023-05-13T05:23:40.573Z,100.00
2023-05-13T05:26:55.569Z,100.00
2023-05-13T05:30:04.852Z,100.00
2023-05-13T05:33:19.577Z,100.00
2023-05-13T05:36:38.197Z,100.00
2023-05-13T05:39:40.375Z,100.00
2023-05-13T05:42:55.570Z,100.00
2023-05-13T05:46:04.235Z,100.00
2023-05-13T05:49:19.601Z,100.00
2023-05-13T05:52:34.590Z,100.00
2023-05-13T05:55:51.166Z,100.00
2023-05-13T05:59:07.550Z,100.00
2023-05-13T06:02:15.589Z,100.00
2023-05-13T06:05:24.115Z,100.00
2023-05-13T06:08:38.576Z,100.00
2023-05-13T06:11:40.419Z,100.00
2023-05-13T06:14:56.577Z,100.00
2023-05-13T06:18:11.616Z,100.00
2023-05-13T06:21:20.180Z,100.00
2023-05-13T06:24:28.584Z,100.00
2023-05-13T06:27:37.153Z,100.00
2023-05-13T06:30:45.597Z,100.00
2023-05-13T06:33:54.168Z,100.00
2023-05-13T06:37:08.562Z,100.00
2023-05-13T06:40:17.592Z,100.00
2023-05-13T06:43:26.102Z,100.00
2023-05-13T06:46:34.621Z,100.00
2023-05-13T06:49:43.446Z,100.00
2023-05-13T06:52:58.573Z,100.00
2023-05-13T06:56:00.434Z,100.00
2023-05-13T06:59:15.579Z,100.00
2023-05-13T07:02:23.640Z,100.00
2023-05-13T07:05:40.563Z,100.00
2023-05-13T07:08:49.169Z,100.00
2023-05-13T07:11:57.579Z,100.00
2023-05-13T07:15:12.837Z,100.00
2023-05-13T07:18:21.567Z,100.00
2023-05-13T07:21:30.346Z,100.00
2023-05-13T07:24:45.572Z,100.00
2023-05-13T07:27:54.089Z,100.00
2023-05-13T07:31:08.682Z,100.00
2023-05-13T07:34:23.567Z,100.00
2023-05-13T07:37:38.590Z,100.00
2023-05-13T07:40:53.626Z,100.00
2023-05-13T07:43:55.413Z,100.00
2023-05-13T07:47:10.698Z,100.00
2023-05-13T07:50:19.570Z,100.00
2023-05-13T07:53:28.389Z,100.00
2023-05-13T07:56:43.564Z,100.00
2023-05-13T07:59:45.557Z,100.00
2023-05-13T08:03:00.684Z,100.00
2023-05-13T08:06:09.612Z,100.00
2023-05-13T08:09:18.202Z,100.00
2023-05-13T08:12:32.560Z,100.00
2023-05-13T08:15:47.565Z,100.00
2023-05-13T08:18:56.236Z,100.00
2023-05-13T08:22:11.580Z,100.00
2023-05-13T08:25:13.588Z,100.00
2023-05-13T08:28:28.594Z,100.00
2023-05-13T08:31:30.773Z,100.00
2023-05-13T08:34:45.605Z,100.00
2023-05-13T08:38:00.570Z,100.00
2023-05-13T08:41:21.912Z,100.00
2023-05-13T08:44:38.556Z,100.00
2023-05-13T08:47:56.697Z,100.00
2023-05-13T08:51:05.673Z,100.00
2023-05-13T08:54:22.435Z,100.00
2023-05-13T08:57:32.224Z,100.00
2023-05-13T09:00:47.609Z,100.00
2023-05-13T09:04:08.645Z,100.00
2023-05-13T09:07:17.231Z,100.00
2023-05-13T09:10:26.586Z,100.00
2023-05-13T09:13:41.595Z,100.00
2023-05-13T09:16:56.630Z,100.00
2023-05-13T09:20:09.385Z,100.00
2023-05-13T09:23:24.576Z,100.00
2023-05-13T09:26:39.591Z,100.00
2023-05-13T09:29:59.446Z,100.00
2023-05-13T09:33:15.637Z,100.00
2023-05-13T09:36:24.277Z,100.00
2023-05-13T09:39:33.985Z,100.00
2023-05-13T09:42:45.346Z,100.00
2023-05-13T09:46:01.585Z,100.00
2023-05-13T09:49:10.610Z,100.00
2023-05-13T09:52:19.093Z,100.00
2023-05-13T09:55:29.557Z,100.00
2023-05-13T09:58:38.405Z,100.00
2023-05-13T10:01:54.617Z,100.00
2023-05-13T10:04:56.706Z,100.00
2023-05-13T10:08:12.595Z,100.00
2023-05-13T10:11:23.458Z,100.00
2023-05-13T10:14:39.587Z,100.00
2023-05-13T10:17:54.617Z,100.00
2023-05-13T10:21:04.410Z,100.00
2023-05-13T10:24:20.606Z,100.00
2023-05-13T10:27:37.607Z,100.00
2023-05-13T10:30:52.764Z,100.00
2023-05-13T10:34:01.664Z,100.00
2023-05-13T10:37:23.607Z,99.97
2023-05-13T10:41:09.654Z,100.00
2023-05-13T10:44:18.589Z,100.00
2023-05-13T10:47:27.742Z,100.00
2023-05-13T10:50:36.575Z,98.64
2023-05-13T10:53:57.577Z,100.00
2023-05-13T10:57:01.102Z,99.94
2023-05-13T11:00:20.773Z,100.00
2023-05-13T11:03:36.718Z,99.68
2023-05-13T11:06:40.720Z,100.00
2023-05-13T11:09:56.593Z,100.00
2023-05-13T11:13:08.289Z,100.00
2023-05-13T11:16:19.636Z,100.00
2023-05-13T11:19:39.556Z,100.00
2023-05-13T11:22:48.169Z,99.42
2023-05-13T11:26:16.575Z,100.00
2023-05-13T11:29:35.582Z,100.00
2023-05-13T11:33:03.745Z,100.00
2023-05-13T11:36:12.374Z,100.00
2023-05-13T11:39:25.564Z,100.00
2023-05-13T11:42:37.337Z,100.00
2023-05-13T11:45:53.622Z,100.00
2023-05-13T11:49:01.595Z,100.00
2023-05-13T11:52:20.603Z,100.00
2023-05-13T11:55:40.639Z,100.00
2023-05-13T11:58:44.529Z,100.00
2023-05-13T12:02:06.638Z,100.00
2023-05-13T12:05:18.304Z,99.45
2023-05-13T12:08:33.615Z,100.00
2023-05-13T12:11:42.560Z,99.09
2023-05-13T12:14:57.675Z,98.85
2023-05-13T12:18:12.675Z,98.29
2023-05-13T12:21:21.427Z,96.06
2023-05-13T12:24:40.585Z,95.20
2023-05-13T12:27:58.773Z,94.93
2023-05-13T12:31:22.645Z,95.92
2023-05-13T12:34:41.641Z,96.08
2023-05-13T12:37:43.501Z,96.35
2023-05-13T12:40:58.607Z,96.87
2023-05-13T12:44:07.581Z,97.07
2023-05-13T12:47:22.647Z,97.30
2023-05-13T12:50:37.628Z,100.00
2023-05-13T12:53:52.638Z,96.73
2023-05-13T12:57:08.680Z,97.43
2023-05-13T13:00:17.696Z,97.76
2023-05-13T13:03:32.636Z,95.60
2023-05-13T13:06:41.131Z,95.98
2023-05-13T13:09:49.597Z,94.90
2023-05-13T13:13:07.612Z,95.27
2023-05-13T13:16:22.683Z,94.47
2023-05-13T13:19:24.653Z,95.51
2023-05-13T13:22:39.606Z,94.64
2023-05-13T13:25:49.377Z,94.39
2023-05-13T13:29:04.623Z,93.93
2023-05-13T13:32:20.627Z,93.92
2023-05-13T13:35:29.351Z,95.49
2023-05-13T13:38:37.681Z,95.24
2023-05-13T13:41:52.641Z,95.96
2023-05-13T13:45:07.679Z,95.66
2023-05-13T13:48:22.595Z,95.30
2023-05-13T13:51:31.208Z,96.02
2023-05-13T13:54:39.598Z,95.58
2023-05-13T13:57:54.584Z,96.40
2023-05-13T14:01:09.654Z,94.95
2023-05-13T14:04:19.571Z,94.36
2023-05-13T14:07:28.375Z,94.90
2023-05-13T14:10:43.628Z,95.26
2023-05-13T14:13:58.605Z,95.51
2023-05-13T14:17:14.513Z,96.20
2023-05-13T14:20:22.790Z,94.18
2023-05-13T14:23:31.222Z,94.40
2023-05-13T14:26:39.608Z,95.84
2023-05-13T14:29:48.405Z,94.95
2023-05-13T14:33:03.655Z,94.86
2023-05-13T14:36:30.557Z,94.14
2023-05-13T14:39:38.439Z,93.47
2023-05-13T14:42:53.876Z,93.43
2023-05-13T14:46:02.479Z,93.95
2023-05-13T14:49:10.592Z,94.43
2023-05-13T14:52:33.427Z,93.65
2023-05-13T14:55:51.104Z,95.32
2023-05-13T14:59:12.880Z,93.57
2023-05-13T15:02:31.018Z,95.91
2023-05-13T15:05:40.086Z,95.31
2023-05-13T15:08:49.592Z,95.25
2023-05-13T15:12:04.632Z,96.19
2023-05-13T15:15:13.236Z,97.05
2023-05-13T15:18:27.652Z,95.63
2023-05-13T15:21:29.552Z,94.99
2023-05-13T15:24:44.696Z,94.02
2023-05-13T15:27:54.600Z,94.93
2023-05-13T15:31:03.391Z,94.10
2023-05-13T15:34:18.636Z,93.78
2023-05-13T15:37:27.183Z,92.54
2023-05-13T15:40:41.618Z,92.88
2023-05-13T15:43:43.399Z,93.25
2023-05-13T15:46:58.726Z,94.25
2023-05-13T15:50:07.643Z,94.06
2023-05-13T15:53:22.779Z,93.17
2023-05-13T15:56:37.805Z,92.91
2023-05-13T15:59:46.651Z,92.36
2023-05-13T16:02:56.258Z,93.67
2023-05-13T16:06:12.614Z,94.83
2023-05-13T16:09:14.444Z,93.42
2023-05-13T16:12:29.624Z,92.48
2023-05-13T16:15:44.645Z,93.37
2023-05-13T16:18:52.979Z,93.60
2023-05-13T16:22:35.653Z,93.41
2023-05-13T16:25:50.637Z,92.58
2023-05-13T16:28:52.517Z,92.42
2023-05-13T16:32:07.657Z,92.64
2023-05-13T16:35:16.626Z,90.55
2023-05-13T16:38:25.185Z,93.21
2023-05-13T16:41:39.646Z,91.03
2023-05-13T16:44:41.853Z,92.21
2023-05-13T16:47:56.727Z,92.79
2023-05-13T16:51:05.624Z,93.22
2023-05-13T16:54:20.613Z,93.49
2023-05-13T16:57:22.435Z,95.02
2023-05-13T17:00:37.604Z,95.04
2023-05-13T17:03:45.702Z,95.52
2023-05-13T17:07:00.656Z,96.12
2023-05-13T17:10:11.423Z,96.98
2023-05-13T17:13:26.654Z,96.04
2023-05-13T17:16:41.933Z,95.86
2023-05-13T17:19:50.601Z,94.86
2023-05-13T17:22:59.229Z,95.08
2023-05-13T17:26:07.590Z,94.56
2023-05-13T17:29:22.624Z,95.53
2023-05-13T17:32:31.217Z,96.32
2023-05-13T17:35:39.617Z,97.27
2023-05-13T17:38:48.786Z,97.47
2023-05-13T17:41:57.645Z,98.39
2023-05-13T17:45:13.717Z,98.50
2023-05-13T17:48:22.284Z,97.47
2023-05-13T17:51:37.622Z,98.07
2023-05-13T17:54:52.632Z,97.68
2023-05-13T17:58:01.607Z,98.93
2023-05-13T18:01:16.722Z,99.02
2023-05-13T18:04:25.372Z,99.67
2023-05-13T18:07:33.622Z,99.88
2023-05-13T18:10:48.624Z,99.94
2023-05-13T18:13:57.248Z,100.00
2023-05-13T18:17:06.609Z,100.00
2023-05-13T18:20:15.280Z,100.00
2023-05-13T18:23:23.621Z,100.00
2023-05-13T18:26:32.192Z,100.00
2023-05-13T18:29:41.653Z,100.00
2023-05-13T18:32:50.366Z,100.00
2023-05-13T18:36:05.619Z,100.00
2023-05-13T18:39:13.652Z,100.00
2023-05-13T18:42:28.611Z,100.00
2023-05-13T18:45:37.359Z,100.00
2023-05-13T18:48:52.607Z,100.00
2023-05-13T18:52:01.997Z,100.00
2023-05-13T18:55:11.634Z,100.00
2023-05-13T18:58:27.655Z,100.00
2023-05-13T19:01:38.684Z,100.00
2023-05-13T19:04:55.655Z,100.00
2023-05-13T19:08:09.642Z,100.00
2023-05-13T19:11:26.648Z,100.00
2023-05-13T19:14:36.431Z,100.00
2023-05-13T19:17:59.705Z,100.00
2023-05-13T19:21:02.725Z,100.00
2023-05-13T19:24:19.638Z,100.00
2023-05-13T19:27:31.233Z,100.00
2023-05-13T19:30:47.631Z,100.00
2023-05-13T19:34:06.645Z,100.00
2023-05-13T19:37:18.396Z,100.00
2023-05-13T19:40:34.634Z,100.00
2023-05-13T19:43:53.662Z,100.00
2023-05-13T19:47:05.965Z,100.00
2023-05-13T19:50:16.649Z,100.00
2023-05-13T19:53:31.556Z,100.00
2023-05-13T19:56:40.664Z,100.00
2023-05-13T20:00:03.638Z,100.00
2023-05-13T20:03:12.955Z,100.00
2023-05-13T20:06:22.658Z,100.00
2023-05-13T20:09:39.639Z,100.00
2023-05-13T20:12:51.353Z,100.00
2023-05-13T20:16:00.663Z,100.00
2023-05-13T20:19:17.172Z,100.00
2023-05-13T20:22:29.649Z,100.00
2023-05-13T20:25:45.701Z,100.00
2023-05-13T20:28:56.382Z,100.00
2023-05-13T20:32:05.821Z,100.00
2023-05-13T20:35:15.364Z,100.00
2023-05-13T20:38:31.630Z,100.00
2023-05-13T20:41:46.669Z,100.00
2023-05-13T20:44:56.545Z,100.00
2023-05-13T20:48:05.643Z,100.00
2023-05-13T20:51:21.637Z,100.00
2023-05-13T20:54:36.623Z,100.00
2023-05-13T20:57:39.121Z,100.00
2023-05-13T21:00:53.623Z,100.00
2023-05-13T21:04:03.762Z,100.00
2023-05-13T21:07:18.682Z,100.00
2023-05-13T21:10:27.660Z,100.00
2023-05-13T21:13:36.482Z,100.00
2023-05-13T21:16:51.641Z,100.00
2023-05-13T21:20:00.351Z,100.00
2023-05-13T21:23:08.638Z,100.00
2023-05-13T21:26:17.409Z,100.00
2023-05-13T21:29:25.663Z,100.00
2023-05-13T21:32:40.661Z,100.00
2023-05-13T21:35:55.871Z,100.00
2023-05-13T21:39:04.662Z,100.00
2023-05-13T21:42:19.679Z,100.00
2023-05-13T21:45:28.205Z,100.00
2023-05-13T21:48:42.723Z,100.00
2023-05-13T21:51:52.175Z,100.00
2023-05-13T21:55:00.648Z,100.00
2023-05-13T21:58:15.633Z,100.00
2023-05-13T22:01:24.338Z,100.00
2023-05-13T22:04:32.654Z,100.00
2023-05-13T22:07:41.154Z,100.00
2023-05-13T22:10:49.720Z,100.00
2023-05-13T22:13:59.271Z,100.00
2023-05-13T22:17:20.739Z,100.00
2023-05-13T22:20:29.207Z,100.00
2023-05-13T22:23:37.630Z,100.00
2023-05-13T22:26:52.641Z,100.00
2023-05-13T22:30:01.257Z,100.00
2023-05-13T22:33:09.722Z,100.00
2023-05-13T22:36:18.201Z,100.00
2023-05-13T22:39:26.658Z,100.00
2023-05-13T22:42:41.645Z,100.00
2023-05-13T22:45:56.679Z,100.00
2023-05-13T22:49:05.429Z,100.00
2023-05-13T22:52:13.682Z,100.00
2023-05-13T22:55:22.238Z,100.00
2023-05-13T22:58:36.663Z,100.00
2023-05-13T23:01:38.522Z,100.00
2023-05-13T23:04:53.651Z,100.00
2023-05-13T23:08:01.651Z,100.00
2023-05-13T23:11:10.242Z,100.00
2023-05-13T23:14:18.666Z,100.00
2023-05-13T23:17:40.634Z,100.00
2023-05-13T23:20:56.655Z,100.00
2023-05-13T23:24:11.647Z,100.00
2023-05-13T23:27:20.207Z,100.00
2023-05-13T23:30:28.632Z,100.00
2023-05-13T23:33:43.640Z,100.00
2023-05-13T23:36:51.639Z,100.00
2023-05-13T23:40:00.174Z,100.00
2023-05-13T23:43:08.647Z,100.00
2023-05-13T23:46:17.302Z,100.00
2023-05-13T23:49:32.649Z,100.00
2023-05-13T23:52:41.669Z,100.00
2023-05-13T23:55:56.649Z,100.00
2023-05-13T23:59:04.669Z,100.00
